Time;durP1;ratioP1;P1;durP2;ratioP2;P2;SDS_P1;SDS_P2;PMS_P1;PMS_P2;Temp;Humidity;BMP_temperature;BMP_pressure;BME280_temperature;BME280_humidity;BME280_pressure;Samples;Min_cycle;Max_cycle;Signal;HPM_P1;HPM_P2
2022/07/16 00:01:22;;;;;;;12.57;5.60;;;;;;;;;;4997307;28;20041;-70
2022/07/16 00:01:49;;;;;;;11.40;5.32;;;;;;;;;;5013433;28;20503;-69
2022/07/16 00:04:18;;;;;;;12.02;5.53;;;;;;;;;;5013644;28;20077;-69
2022/07/16 00:06:44;;;;;;;13.45;5.75;;;;;;;;;;5012917;28;20172;-70
2022/07/16 00:09:10;;;;;;;14.00;5.32;;;;;;;;;;5013311;28;20046;-70
2022/07/16 00:11:37;;;;;;;12.95;4.75;;;;;;;;;;5002934;28;20050;-70
2022/07/16 00:14:03;;;;;;;;;;;;;;;;;;5015720;28;20073;-70
2022/07/16 00:16:29;;;;;;;10.77;5.22;;;;;;;;;;5014785;28;19925;-71
2022/07/16 00:21:39;;;;;;;14.15;5.22;;;;;;;;;;5011411;28;20045;-71
2022/07/16 00:24:07;;;;;;;15.18;4.78;;;;;;;;;;5014540;28;20414;-70
2022/07/16 00:26:33;;;;;;;14.45;4.75;;;;;;;;;;5013061;28;20048;-71
2022/07/16 00:28:59;;;;;;;13.55;4.80;;;;;;;;;;5010821;28;20079;-70
2022/07/16 00:31:25;;;;;;;9.45;4.60;;;;;;;;;;5003112;28;20041;-71
2022/07/16 00:33:51;;;;;;;13.30;5.07;;;;;;;;;;4997738;28;20046;-70
2022/07/16 00:36:17;;;;;;;14.15;6.10;;;;;;;;;;4995143;28;20085;-71
2022/07/16 00:38:43;;;;;;;13.63;6.28;;;;;;;;;;4994562;28;20042;-72
2022/07/16 00:41:18;;;;;;;13.20;6.53;;;;;;;;;;5012154;28;20050;-73
2022/07/16 00:43:48;;;;;;;14.38;7.60;;;;;;;;;;4995373;28;20449;-73
2022/07/16 00:46:15;;;;;;;18.48;7.20;;;;;;;;;;5014752;28;20050;-72
2022/07/16 00:48:41;;;;;;;12.07;6.07;;;;;;;;;;5012016;28;20053;-70
2022/07/16 00:51:07;;;;;;;;;;;;;;;;;;5012145;28;20048;-70
2022/07/16 00:53:34;;;;;;;11.13;4.80;;;;;;;;;;4995185;28;19964;-70
2022/07/16 00:56:00;;;;;;;10.77;4.40;;;;;;;;;;5014444;28;20057;-71
2022/07/16 00:58:26;;;;;;;10.40;3.35;;;;;;;;;;5012643;28;20057;-70
2022/07/16 01:00:52;;;;;;;10.43;3.50;;;;;;;;;;5011804;28;20061;-69
2022/07/16 01:03:18;;;;;;;11.32;3.40;;;;;;;;;;5011979;28;20121;-69
2022/07/16 01:05:45;;;;;;;10.50;3.58;;;;;;;;;;5012465;28;20096;-69
2022/07/16 01:08:11;;;;;;;10.73;3.00;;;;;;;;;;5013621;28;20046;-68
2022/07/16 01:10:39;;;;;;;11.50;3.00;;;;;;;;;;5011861;28;20045;-69
2022/07/16 01:13:05;;;;;;;10.43;3.10;;;;;;;;;;5012714;28;20076;-69
2022/07/16 01:15:31;;;;;;;10.60;2.90;;;;;;;;;;5013162;28;20042;-68
2022/07/16 01:17:57;;;;;;;12.55;3.13;;;;;;;;;;5010227;28;20065;-68
2022/07/16 01:20:23;;;;;;;9.43;3.30;;;;;;;;;;5012938;28;20053;-68
2022/07/16 01:22:52;;;;;;;11.13;3.67;;;;;;;;;;5011335;28;20183;-68
2022/07/16 01:25:18;;;;;;;11.48;3.00;;;;;;;;;;5012821;28;20038;-67
2022/07/16 01:27:44;;;;;;;15.32;3.60;;;;;;;;;;5010243;28;20487;-68
2022/07/16 01:30:11;;;;;;;11.10;3.03;;;;;;;;;;4998167;28;20453;-69
2022/07/16 01:32:37;;;;;;;11.25;3.50;;;;;;;;;;5010114;28;20164;-69
2022/07/16 01:35:03;;;;;;;;;;;;;;;;;;5012221;28;20119;-69
2022/07/16 01:37:29;;;;;;;;;;;;;;;;;;5013625;28;20362;-69
2022/07/16 01:39:55;;;;;;;;;;;;;;;;;;5011970;28;19925;-69
2022/07/16 01:42:21;;;;;;;;;;;;;;;;;;5011335;28;20004;-69
2022/07/16 01:44:47;;;;;;;;;;;;;;;;;;5010248;28;20316;-69
2022/07/16 01:47:13;;;;;;;;;;;;;;;;;;5013918;28;19928;-69
2022/07/16 01:49:39;;;;;;;;;;;;;;;;;;5011354;28;19987;-68
2022/07/16 01:52:05;;;;;;;;;;;;;;;;;;5011448;28;20381;-69
2022/07/16 01:54:31;;;;;;;;;;;;;;;;;;5011853;28;20364;-69
2022/07/16 01:56:57;;;;;;;;;;;;;;;;;;5012276;28;20016;-69
2022/07/16 01:59:23;;;;;;;;;;;;;;;;;;5012568;28;19928;-69
2022/07/16 02:01:49;;;;;;;;;;;;;;;;;;5011906;28;19925;-69
2022/07/16 02:04:15;;;;;;;;;;;;;;;;;;5008834;28;19928;-69
2022/07/16 02:06:42;;;;;;;;;;;;;;;;;;5012284;28;19980;-69
2022/07/16 02:09:08;;;;;;;;;;;;;;;;;;5013161;28;20326;-69
2022/07/16 02:11:34;;;;;;;;;;;;;;;;;;5001522;28;20020;-69
2022/07/16 02:13:59;;;;;;;;;;;;;;;;;;4997358;28;20020;-69
2022/07/16 02:16:25;;;;;;;;;;;;;;;;;;5013408;28;19948;-68
2022/07/16 02:18:51;;;;;;;;;;;;;;;;;;5011359;28;19925;-68
2022/07/16 02:21:17;;;;;;;;;;;;;;;;;;5009030;28;19926;-68
2022/07/16 02:23:43;;;;;;;;;;;;;;;;;;5009396;28;19929;-69
2022/07/16 02:26:09;;;;;;;;;;;;;;;;;;5013252;28;19925;-69
2022/07/16 02:28:35;;;;;;;;;;;;;;;;;;5012284;28;19921;-68
2022/07/16 02:31:01;;;;;;;;;;;;;;;;;;4995882;28;19968;-69
2022/07/16 02:33:27;;;;;;;;;;;;;;;;;;5005252;28;19929;-69
2022/07/16 02:35:53;;;;;;;;;;;;;;;;;;5007352;28;19921;-68
2022/07/16 02:38:19;;;;;;;;;;;;;;;;;;5013162;28;19926;-68
2022/07/16 02:40:45;;;;;;;;;;;;;;;;;;5012216;28;19925;-68
2022/07/16 02:43:11;;;;;;;;;;;;;;;;;;5011044;28;19925;-69
2022/07/16 02:45:37;;;;;;;;;;;;;;;;;;5011351;28;19922;-69
2022/07/16 02:48:03;;;;;;;;;;;;;;;;;;5011657;28;20389;-69
2022/07/16 02:50:29;;;;;;;;;;;;;;;;;;5012397;28;20298;-69
2022/07/16 02:52:55;;;;;;;;;;;;;;;;;;5006419;28;19928;-69
2022/07/16 02:55:21;;;;;;;;;;;;;;;;;;5003736;28;20324;-69
2022/07/16 02:57:47;;;;;;;;;;;;;;;;;;5012271;28;19976;-69
2022/07/16 03:00:13;;;;;;;;;;;;;;;;;;5009297;28;19945;-69
2022/07/16 03:02:39;;;;;;;;;;;;;;;;;;5012070;28;19932;-69
2022/07/16 03:05:05;;;;;;;;;;;;;;;;;;5009788;28;20270;-69
2022/07/16 03:07:31;;;;;;;;;;;;;;;;;;5012264;28;20282;-69
2022/07/16 03:09:57;;;;;;;;;;;;;;;;;;5010939;28;19968;-69
2022/07/16 03:12:23;;;;;;;;;;;;;;;;;;5012656;28;19968;-69
2022/07/16 03:14:49;;;;;;;;;;;;;;;;;;5010488;28;19977;-70
2022/07/16 03:17:15;;;;;;;;;;;;;;;;;;5007869;28;19971;-70
2022/07/16 03:19:41;;;;;;;;;;;;;;;;;;5008375;28;20301;-70
2022/07/16 03:22:07;;;;;;;;;;;;;;;;;;5011489;28;19925;-70
2022/07/16 03:24:32;;;;;;;;;;;;;;;;;;5009726;28;19921;-70
2022/07/16 03:26:58;;;;;;;;;;;;;;;;;;5010575;28;19933;-70
2022/07/16 03:29:24;;;;;;;;;;;;;;;;;;5010488;28;20381;-69
2022/07/16 03:31:50;;;;;;;;;;;;;;;;;;5000428;28;19921;-69
2022/07/16 03:34:16;;;;;;;;;;;;;;;;;;5008854;28;19967;-70
2022/07/16 03:36:42;;;;;;;;;;;;;;;;;;4992321;28;20348;-69
2022/07/16 03:39:08;;;;;;;;;;;;;;;;;;4990804;28;19926;-69
2022/07/16 03:41:34;;;;;;;;;;;;;;;;;;5004325;28;19929;-70
2022/07/16 03:44:00;;;;;;;;;;;;;;;;;;5012297;28;20350;-69
2022/07/16 03:46:26;;;;;;;;;;;;;;;;;;4995347;28;19921;-69
2022/07/16 03:48:52;;;;;;;;;;;;;;;;;;4994274;28;20375;-70
2022/07/16 03:51:18;;;;;;;;;;;;;;;;;;5010404;28;19921;-69
2022/07/16 03:53:44;;;;;;;;;;;;;;;;;;5008686;28;19944;-70
2022/07/16 03:56:10;;;;;;;;;;;;;;;;;;5008866;28;19921;-70
2022/07/16 03:58:36;;;;;;;;;;;;;;;;;;5012548;28;19922;-70
2022/07/16 04:01:02;;;;;;;;;;;;;;;;;;5008394;28;20317;-70
2022/07/16 04:03:28;;;;;;;;;;;;;;;;;;5010923;28;19972;-70
2022/07/16 04:05:54;;;;;;;;;;;;;;;;;;5009573;28;19922;-71
2022/07/16 04:08:20;;;;;;;;;;;;;;;;;;5011557;28;19925;-70
2022/07/16 04:10:46;;;;;;;;;;;;;;;;;;5013507;28;19921;-70
2022/07/16 04:13:12;;;;;;;;;;;;;;;;;;5013423;28;20321;-70
2022/07/16 04:15:38;;;;;;;;;;;;;;;;;;5011406;28;19965;-71
2022/07/16 04:18:03;;;;;;;;;;;;;;;;;;5012765;28;19921;-70
2022/07/16 04:20:29;;;;;;;;;;;;;;;;;;5010498;28;19930;-70
2022/07/16 04:22:55;;;;;;;;;;;;;;;;;;5013219;28;20369;-70
2022/07/16 04:25:21;;;;;;;;;;;;;;;;;;5008386;28;20400;-70
2022/07/16 04:27:48;;;;;;;;;;;;;;;;;;5013570;28;19944;-69
2022/07/16 04:30:14;;;;;;;;;;;;;;;;;;5007279;28;20393;-69
2022/07/16 04:32:40;;;;;;;;;;;;;;;;;;5010374;28;19922;-70
2022/07/16 04:35:06;;;;;;;;;;;;;;;;;;5012344;28;19921;-70
2022/07/16 04:37:32;;;;;;;;;;;;;;;;;;4996058;28;19979;-70
2022/07/16 04:39:58;;;;;;;;;;;;;;;;;;5000347;28;19925;-70
2022/07/16 04:42:23;;;;;;;;;;;;;;;;;;5003744;28;20071;-71
2022/07/16 04:44:49;;;;;;;;;;;;;;;;;;4988847;28;19933;-70
2022/07/16 04:47:15;;;;;;;;;;;;;;;;;;4995338;28;20004;-71
2022/07/16 04:49:41;;;;;;;;;;;;;;;;;;4997433;28;19921;-71
2022/07/16 04:52:07;;;;;;;;;;;;;;;;;;5000547;28;20068;-71
2022/07/16 04:54:33;;;;;;;;;;;;;;;;;;4994435;28;19970;-71
2022/07/16 04:56:59;;;;;;;;;;;;;;;;;;5007184;28;19965;-70
2022/07/16 04:59:25;;;;;;;;;;;;;;;;;;5012596;28;20354;-71
2022/07/16 05:01:51;;;;;;;;;;;;;;;;;;5011734;28;20407;-71
2022/07/16 05:04:17;;;;;;;;;;;;;;;;;;5010685;28;20369;-68
2022/07/16 05:06:43;;;;;;;;;;;;;;;;;;4998932;28;20350;-70
2022/07/16 05:09:09;;;;;;;;;;;;;;;;;;5012568;28;20278;-71
2022/07/16 05:11:35;;;;;;;;;;;;;;;;;;5011533;28;19929;-71
2022/07/16 05:14:01;;;;;;;;;;;;;;;;;;4992659;28;19925;-71
2022/07/16 05:16:27;;;;;;;;;;;;;;;;;;5005699;28;20394;-71
2022/07/16 05:18:53;;;;;;;;;;;;;;;;;;4991119;28;20000;-69
2022/07/16 05:21:19;;;;;;;;;;;;;;;;;;4990296;28;20369;-71
2022/07/16 05:23:45;;;;;;;;;;;;;;;;;;4989496;28;20301;-70
2022/07/16 05:26:11;;;;;;;;;;;;;;;;;;5007218;28;19921;-70
2022/07/16 05:28:37;;;;;;;;;;;;;;;;;;5012249;28;19928;-69
2022/07/16 05:31:03;;;;;;;;;;;;;;;;;;5012926;28;19932;-70
2022/07/16 05:33:29;;;;;;;;;;;;;;;;;;5011448;28;20104;-68
2022/07/16 05:35:55;;;;;;;;;;;;;;;;;;5010093;28;20012;-69
2022/07/16 05:38:21;;;;;;;;;;;;;;;;;;5005474;28;19976;-70
2022/07/16 05:40:47;;;;;;;;;;;;;;;;;;5007540;28;19929;-71
2022/07/16 05:43:13;;;;;;;;;;;;;;;;;;4999734;28;19968;-70
2022/07/16 05:45:39;;;;;;;;;;;;;;;;;;5007514;28;19929;-70
2022/07/16 05:48:05;;;;;;;;;;;;;;;;;;5008669;28;20016;-70
2022/07/16 05:50:31;;;;;;;;;;;;;;;;;;4992053;28;19928;-70
2022/07/16 05:52:57;;;;;;;;;;;;;;;;;;4987609;28;19928;-69
2022/07/16 05:55:23;;;;;;;;;;;;;;;;;;5010981;28;19921;-70
2022/07/16 05:57:48;;;;;;;;;;;;;;;;;;5001245;28;19921;-70
2022/07/16 06:00:15;;;;;;;;;;;;;;;;;;4996746;28;19928;-71
2022/07/16 06:02:41;;;;;;;;;;;;;;;;;;5011252;28;19921;-69
2022/07/16 06:05:07;;;;;;;;;;;;;;;;;;5011119;28;19921;-68
2022/07/16 06:07:33;;;;;;;;;;;;;;;;;;5006340;28;19952;-69
2022/07/16 06:09:59;;;;;;;;;;;;;;;;;;5007845;28;19921;-68
2022/07/16 06:12:24;;;;;;;;;;;;;;;;;;5009470;28;19926;-69
2022/07/16 06:14:50;;;;;;;;;;;;;;;;;;5011011;28;20344;-68
2022/07/16 06:17:17;;;;;;;;;;;;;;;;;;5009166;28;20312;-69
2022/07/16 06:19:43;;;;;;;;;;;;;;;;;;4984542;28;19925;-69
2022/07/16 06:22:09;;;;;;;;;;;;;;;;;;5004412;28;19921;-67
2022/07/16 06:24:35;;;;;;;;;;;;;;;;;;5000362;28;19980;-69
2022/07/16 06:27:01;;;;;;;;;;;;;;;;;;5002629;28;20047;-69
2022/07/16 06:29:27;;;;;;;;;;;;;;;;;;5002500;28;20016;-68
2022/07/16 06:31:52;;;;;;;;;;;;;;;;;;5008925;28;19921;-69
2022/07/16 06:34:18;;;;;;;;;;;;;;;;;;5006585;28;19984;-71
2022/07/16 06:36:44;;;;;;;;;;;;;;;;;;5007421;28;19921;-66
2022/07/16 06:39:10;;;;;;;;;;;;;;;;;;5005522;28;19928;-68
2022/07/16 06:41:39;;;;;;;;;;;;;;;;;;5003968;28;19962;-68
2022/07/16 06:44:06;;;;;;;;;;;;;;;;;;4991586;28;20285;-67
2022/07/16 06:46:32;;;;;;;;;;;;;;;;;;5009621;28;19921;-69
2022/07/16 06:48:58;;;;;;;;;;;;;;;;;;4988356;28;19926;-71
2022/07/16 06:51:24;;;;;;;;;;;;;;;;;;5006111;28;19936;-70
2022/07/16 06:53:50;;;;;;;;;;;;;;;;;;5004535;28;20011;-68
2022/07/16 06:56:16;;;;;;;;;;;;;;;;;;5005002;28;19926;-68
2022/07/16 06:58:41;;;;;;;;;;;;;;;;;;5005309;28;20413;-71
2022/07/16 07:01:08;;;;;;;;;;;;;;;;;;5009635;28;19944;-70
2022/07/16 07:03:34;;;;;;;;;;;;;;;;;;5004431;28;19922;-68
2022/07/16 07:06:00;;;;;;;;;;;;;;;;;;5004762;28;19971;-67
2022/07/16 07:08:26;;;;;;;;;;;;;;;;;;5005293;28;19926;-68
2022/07/16 07:10:52;;;;;;;;;;;;;;;;;;4999169;28;19921;-68
2022/07/16 07:13:18;;;;;;;;;;;;;;;;;;4982698;28;20281;-69
2022/07/16 07:15:44;;;;;;;;;;;;;;;;;;4997357;28;19928;-68
2022/07/16 07:18:10;;;;;;;;;;;;;;;;;;5008836;28;20362;-67
2022/07/16 07:20:36;;;;;;;;;;;;;;;;;;4992536;28;19976;-71
2022/07/16 07:23:02;;;;;;;;;;;;;;;;;;5009302;28;19921;-68
2022/07/16 07:25:28;;;;;;;;;;;;;;;;;;5011504;28;19961;-67
2022/07/16 07:27:55;;;;;;;;;;;;;;;;;;5002566;28;20381;-68
2022/07/16 07:30:21;;;;;;;;;;;;;;;;;;5012429;28;19971;-68
2022/07/16 07:32:47;;;;;;;;;;;;;;;;;;5010662;28;20348;-68
2022/07/16 07:35:13;;;;;;;;;;;;;;;;;;5010122;28;19940;-69
2022/07/16 07:37:39;;;;;;;;;;;;;;;;;;5008366;28;20024;-66
2022/07/16 07:40:05;;;;;;;;;;;;;;;;;;5013942;28;19929;-66
2022/07/16 07:42:31;;;;;;;;;;;;;;;;;;4996554;28;19921;-66
2022/07/16 07:44:57;;;;;;;;;;;;;;;;;;5010331;28;19984;-68
2022/07/16 07:47:23;;;;;;;;;;;;;;;;;;5004924;28;20374;-67
2022/07/16 07:49:49;;;;;;;;;;;;;;;;;;5008746;28;19932;-65
2022/07/16 07:52:16;;;;;;;;;;;;;;;;;;4986026;28;19921;-65
2022/07/16 07:54:41;;;;;;;;;;;;;;;;;;5008061;28;19937;-65
2022/07/16 07:57:07;;;;;;;;;;;;;;;;;;5011649;28;19921;-69
2022/07/16 07:59:33;;;;;;;;;;;;;;;;;;5009269;28;19929;-66
2022/07/16 08:01:59;;;;;;;;;;;;;;;;;;4992289;28;19932;-66
2022/07/16 08:04:25;;;;;;;;;;;;;;;;;;5006902;28;19929;-66
2022/07/16 08:06:51;;;;;;;;;;;;;;;;;;5013153;28;19925;-68
2022/07/16 08:09:17;;;;;;;;;;;;;;;;;;5010300;28;20016;-67
2022/07/16 08:11:43;;;;;;;;;;;;;;;;;;5013311;28;20353;-67
2022/07/16 08:14:09;;;;;;;;;;;;;;;;;;4996135;28;19925;-68
2022/07/16 08:16:35;;;;;;;;;;;;;;;;;;5012542;28;19928;-67
2022/07/16 08:19:01;;;;;;;;;;;;;;;;;;4995922;28;19929;-69
2022/07/16 08:21:27;;;;;;;;;;;;;;;;;;5013428;28;19932;-78
2022/07/16 08:26:37;;;;;;;;;;;;;;;;;;5008081;28;19921;-68
2022/07/16 08:29:03;;;;;;;;;;;;;;;;;;5012250;28;20393;-75
2022/07/16 08:31:29;;;;;;;;;;;;;;;;;;5011012;28;20278;-71
2022/07/16 08:33:56;;;;;;;;;;;;;;;;;;5007796;28;20528;-70
2022/07/16 08:36:22;;;;;;;;;;;;;;;;;;5006107;28;19937;-72
2022/07/16 08:38:48;;;;;;;;;;;;;;;;;;5007254;28;20016;-72
2022/07/16 08:41:14;;;;;;;;;;;;;;;;;;5000538;28;19929;-69
2022/07/16 08:43:40;;;;;;;;;;;;;;;;;;5007553;28;19929;-73
2022/07/16 08:46:06;;;;;;;;;;;;;;;;;;5007460;28;19921;-70
2022/07/16 08:48:32;;;;;;;;;;;;;;;;;;5011820;28;19971;-71
2022/07/16 08:50:58;;;;;;;;;;;;;;;;;;5008859;28;19928;-71
2022/07/16 08:53:24;;;;;;;;;;;;;;;;;;5010572;28;19944;-70
2022/07/16 08:55:52;;;;;;;;;;;;;;;;;;4984376;28;19925;-69
2022/07/16 08:58:17;;;;;;;;;;;;;;;;;;5011276;28;19922;-73
2022/07/16 09:00:45;;;;;;;;;;;;;;;;;;5009652;28;20008;-71
2022/07/16 09:03:11;;;;;;;;;;;;;;;;;;5011079;28;19921;-70
2022/07/16 09:05:37;;;;;;;;;;;;;;;;;;4994176;28;20012;-69
2022/07/16 09:08:04;;;;;;;;;;;;;;;;;;4987288;28;19921;-70
2022/07/16 09:10:30;;;;;;;;;;;;;;;;;;4984754;28;19952;-71
2022/07/16 09:12:56;;;;;;;;;;;;;;;;;;5002806;28;20352;-73
2022/07/16 09:15:21;;;;;;;;;;;;;;;;;;5009107;28;19944;-71
2022/07/16 09:17:47;;;;;;;;;;;;;;;;;;5009013;28;19928;-71
2022/07/16 09:20:13;;;;;;;;;;;;;;;;;;5008875;28;19975;-71
2022/07/16 09:22:39;;;;;;;;;;;;;;;;;;5012859;28;20008;-70
2022/07/16 09:25:05;;;;;;;;;;;;;;;;;;5004525;28;19926;-71
2022/07/16 09:27:31;;;;;;;;;;;;;;;;;;5006360;28;19976;-70
2022/07/16 09:30:03;;;;;;;;;;;;;;;;;;5002121;28;20363;-72
2022/07/16 09:32:30;;;;;;;;;;;;;;;;;;5010543;28;19929;-70
2022/07/16 09:34:56;;;;;;;;;;;;;;;;;;5009617;28;20339;-72
2022/07/16 09:37:21;;;;;;;;;;;;;;;;;;4996046;28;19957;-71
2022/07/16 09:39:47;;;;;;;;;;;;;;;;;;4993362;28;19922;-73
2022/07/16 09:42:13;;;;;;;;;;;;;;;;;;5005567;28;20297;-72
2022/07/16 09:44:39;;;;;;;;;;;;;;;;;;5012512;28;19979;-72
2022/07/16 09:47:05;;;;;;;;;;;;;;;;;;5011030;28;20365;-71
2022/07/16 09:49:31;;;;;;;;;;;;;;;;;;4991152;28;20289;-71
2022/07/16 09:51:57;;;;;;;;;;;;;;;;;;5003798;28;19926;-70
2022/07/16 09:54:23;;;;;;;;;;;;;;;;;;5004970;28;20004;-69
2022/07/16 09:56:49;;;;;;;;;;;;;;;;;;5010615;28;20001;-68
2022/07/16 09:59:15;;;;;;;;;;;;;;;;;;5003200;28;19929;-67
2022/07/16 10:01:41;;;;;;;;;;;;;;;;;;4989318;28;19922;-66
2022/07/16 10:04:07;;;;;;;;;;;;;;;;;;4994205;28;19931;-67
2022/07/16 10:06:33;;;;;;;;;;;;;;;;;;4986375;28;19956;-66
2022/07/16 10:08:59;;;;;;;;;;;;;;;;;;5010182;28;19922;-65
2022/07/16 10:11:25;;;;;;;;;;;;;;;;;;5006430;28;19921;-65
2022/07/16 10:13:51;;;;;;;;;;;;;;;;;;5010081;28;19928;-67
2022/07/16 10:16:17;;;;;;;;;;;;;;;;;;5005985;28;19921;-68
2022/07/16 10:18:43;;;;;;;;;;;;;;;;;;4989816;28;19976;-65
2022/07/16 10:21:09;;;;;;;;;;;;;;;;;;5008529;28;19921;-69
2022/07/16 10:23:35;;;;;;;;;;;;;;;;;;5012280;28;19921;-66
2022/07/16 10:26:01;;;;;;;;;;;;;;;;;;4993220;28;20019;-71
2022/07/16 10:28:27;;;;;;;;;;;;;;;;;;5008124;28;19928;-67
2022/07/16 10:30:53;;;;;;;;;;;;;;;;;;4990602;28;19922;-66
2022/07/16 10:33:19;;;;;;;;;;;;;;;;;;5011499;28;19932;-65
2022/07/16 10:35:45;;;;;;;;;;;;;;;;;;4997680;28;19941;-66
2022/07/16 10:38:11;;;;;;;;;;;;;;;;;;4992117;28;20301;-69
2022/07/16 10:40:37;;;;;;;;;;;;;;;;;;5003376;28;19921;-67
2022/07/16 10:43:03;;;;;;;;;;;;;;;;;;4994238;28;20293;-66
2022/07/16 10:45:29;;;;;;;;;;;;;;;;;;5005388;28;19926;-67
2022/07/16 10:47:55;;;;;;;;;;;;;;;;;;4991670;28;19965;-67
2022/07/16 10:50:21;;;;;;;;;;;;;;;;;;4995171;28;19945;-67
2022/07/16 10:52:47;;;;;;;;;;;;;;;;;;5007508;28;19921;-65
2022/07/16 10:55:13;;;;;;;;;;;;;;;;;;5006047;28;20008;-65
2022/07/16 10:57:43;;;;;;;;;;;;;;;;;;4992087;28;19928;-66
2022/07/16 11:00:09;;;;;;;;;;;;;;;;;;4992384;28;19928;-66
2022/07/16 11:02:35;;;;;;;;;;;;;;;;;;5011899;28;19921;-64
2022/07/16 11:05:02;;;;;;;;;;;;;;;;;;4991346;28;20297;-65
2022/07/16 11:07:28;;;;;;;;;;;;;;;;;;4975001;28;20337;-64
2022/07/16 11:09:54;;;;;;;;;;;;;;;;;;4974485;28;19922;-65
2022/07/16 11:12:20;;;;;;;;;;;;;;;;;;5011139;28;19952;-65
2022/07/16 11:14:46;;;;;;;;;;;;;;;;;;5011555;28;20048;-67
2022/07/16 11:17:12;;;;;;;;;;;;;;;;;;4994526;28;19921;-66
2022/07/16 11:19:38;;;;;;;;;;;;;;;;;;4992133;28;19976;-69
2022/07/16 11:22:04;;;;;;;;;;;;;;;;;;5006399;28;20358;-72
2022/07/16 11:24:30;;;;;;;;;;;;;;;;;;5011570;28;19929;-66
2022/07/16 11:26:56;;;;;;;;;;;;;;;;;;4989963;28;19929;-68
2022/07/16 11:29:22;;;;;;;;;;;;;;;;;;4991334;28;19926;-69
2022/07/16 11:31:48;;;;;;;;;;;;;;;;;;4992136;28;20012;-68
2022/07/16 11:34:14;;;;;;;;;;;;;;;;;;4995583;28;20016;-68
2022/07/16 11:36:40;;;;;;;;;;;;;;;;;;4991795;28;19932;-66
2022/07/16 11:39:06;;;;;;;;;;;;;;;;;;4989819;28;19922;-65
2022/07/16 11:41:32;;;;;;;;;;;;;;;;;;4996794;28;19921;-71
2022/07/16 11:43:58;;;;;;;;;;;;;;;;;;5000787;28;19921;-67
2022/07/16 11:46:24;;;;;;;;;;;;;;;;;;5001363;28;19929;-73
2022/07/16 11:48:50;;;;;;;;;;;;;;;;;;5005602;28;20020;-76
2022/07/16 11:51:16;;;;;;;;;;;;;;;;;;5009022;28;19926;-81
2022/07/16 11:53:42;;;;;;;;;;;;;;;;;;5008216;28;20473;-84
2022/07/16 11:56:08;;;;;;;;;;;;;;;;;;5011176;28;19984;-75
2022/07/16 11:58:34;;;;;;;;;;;;;;;;;;4996176;28;19922;-77
2022/07/16 12:01:00;;;;;;;;;;;;;;;;;;5005736;28;19929;-78
2022/07/16 12:03:26;;;;;;;;;;;;;;;;;;5003538;28;19957;-77
2022/07/16 12:05:52;;;;;;;;;;;;;;;;;;5005541;28;20261;-77
2022/07/16 12:08:18;;;;;;;;;;;;;;;;;;5009547;28;20297;-73
2022/07/16 12:10:44;;;;;;;;;;;;;;;;;;5010182;28;19922;-73
2022/07/16 12:13:10;;;;;;;;;;;;;;;;;;4972874;28;19932;-76
2022/07/16 12:15:36;;;;;;;;;;;;;;;;;;4993429;28;19925;-72
2022/07/16 12:18:02;;;;;;;;;;;;;;;;;;5002151;28;19921;-76
2022/07/16 12:20:28;;;;;;;;;;;;;;;;;;5010523;28;19926;-76
2022/07/16 12:22:54;;;;;;;;;;;;;;;;;;5005737;28;20440;-79
2022/07/16 12:25:20;;;;;;;;;;;;;;;;;;4987382;28;19929;-75
2022/07/16 12:27:47;;;;;;;;;;;;;;;;;;5012120;28;19921;-74
2022/07/16 12:30:13;;;;;;;;;;;;;;;;;;5009667;28;19921;-74
2022/07/16 12:32:39;;;;;;;;;;;;;;;;;;5005231;28;20272;-81
2022/07/16 12:35:05;;;;;;;;;;;;;;;;;;5012292;28;19922;-72
2022/07/16 12:37:32;;;;;;;;;;;;;;;;;;4999971;28;19929;-71
2022/07/16 12:39:58;;;;;;;;;;;;;;;;;;5006367;28;20079;-63
2022/07/16 12:42:24;;;;;;;;;;;;;;;;;;4992525;28;19921;-64
2022/07/16 12:44:49;;;;;;;;;;;;;;;;;;5012359;28;19929;-66
2022/07/16 12:47:15;;;;;;;;;;;;;;;;;;5012233;28;20000;-65
2022/07/16 12:49:42;;;;;;;;;;;;;;;;;;5003380;28;20285;-65
2022/07/16 12:52:07;;;;;;;;;;;;;;;;;;4994265;28;19917;-65
2022/07/16 13:00:03;;;;;;;;;;;;;;;;;;5013755;28;19944;-66
2022/07/16 13:02:29;;;;;;;;;;;;;;;;;;5013366;28;19941;-66
2022/07/16 13:04:55;;;;;;;;;;;;;;;;;;5012972;28;19975;-66
2022/07/16 13:07:21;;;;;;;;;;;;;;;;;;5013290;28;19917;-64
2022/07/16 13:09:47;;;;;;;;;;;;;;;;;;5009252;28;19939;-64
2022/07/16 13:12:13;;;;;;;;;;;;;;;;;;5013108;28;19952;-64
2022/07/16 13:14:39;;;;;;;;;;;;;;;;;;5012413;28;19979;-63
2022/07/16 13:17:05;;;;;;;;;;;;;;;;;;5013747;28;19917;-65
2022/07/16 13:19:31;;;;;;;;;;;;;;;;;;5013121;28;20004;-65
2022/07/16 13:21:57;;;;;;;;;;;;;;;;;;5013480;28;19944;-65
2022/07/16 13:24:23;;;;;;;;;;;;;;;;;;5007933;28;19925;-65
2022/07/16 13:26:48;;;;;;;;;;;;;;;;;;5013387;28;19918;-64
2022/07/16 13:29:14;;;;;;;;;;;;;;;;;;5012221;28;19917;-66
2022/07/16 13:31:40;;;;;;;;;;;;;;;;;;5012833;28;19924;-65
2022/07/16 13:34:06;;;;;;;;;;;;;;;;;;5012056;28;19964;-64
2022/07/16 13:36:32;;;;;;;;;;;;;;;;;;5012821;28;19917;-65
2022/07/16 13:38:58;;;;;;;;;;;;;;;;;;4994816;28;20384;-65
2022/07/16 13:41:24;;;;;;;;;;;;;;;;;;5011448;28;19917;-65
2022/07/16 13:43:50;;;;;;;;;;;;;;;;;;5003057;28;19967;-68
2022/07/16 13:46:16;;;;;;;;;;;;;;;;;;4993456;28;20346;-66
2022/07/16 13:48:42;;;;;;;;;;;;;;;;;;5008710;28;20365;-67
2022/07/16 13:51:08;;;;;;;;;;;;;;;;;;5004549;28;19917;-65
2022/07/16 13:53:34;;;;;;;;;;;;;;;;;;5010846;28;19922;-66
2022/07/16 13:56:00;;;;;;;;;;;;;;;;;;5012623;28;19921;-67
2022/07/16 13:58:26;;;;;;;;;;;;;;;;;;5011452;28;19931;-65
2022/07/16 14:00:52;;;;;;;;;;;;;;;;;;5012859;28;19917;-68
2022/07/16 14:03:20;;;;;;;;;;;;;;;;;;5011969;28;20330;-66
2022/07/16 14:05:46;;;;;;;;;;;;;;;;;;5006797;28;20425;-67
2022/07/16 14:08:11;;;;;;;;;;;;;;;;;;5009585;28;20000;-67
2022/07/16 14:10:37;;;;;;;;;;;;;;;;;;5010551;28;19923;-67
2022/07/16 14:13:03;;;;;;;;;;;;;;;;;;5011846;28;19917;-66
2022/07/16 14:15:29;;;;;;;;;;;;;;;;;;5011094;28;19921;-68
2022/07/16 14:17:56;;;;;;;;;;;;;;;;;;5004472;28;19917;-66
2022/07/16 14:20:22;;;;;;;;;;;;;;;;;;5010274;28;20012;-65
2022/07/16 14:22:48;;;;;;;;;;;;;;;;;;5012444;28;20345;-67
2022/07/16 14:25:14;;;;;;;;;;;;;;;;;;5011078;28;19917;-67
2022/07/16 14:27:40;;;;;;;;;;;;;;;;;;5010000;28;19921;-65
2022/07/16 14:30:05;;;;;;;;;;;;;;;;;;5011306;28;19917;-67
2022/07/16 14:32:31;;;;;;;;;;;;;;;;;;4992785;28;19917;-64
2022/07/16 14:34:57;;;;;;;;;;;;;;;;;;4993953;28;19972;-66
2022/07/16 14:37:23;;;;;;;;;;;;;;;;;;5011878;28;20063;-65
2022/07/16 14:39:49;;;;;;;;;;;;;;;;;;5011312;28;20380;-65
2022/07/16 14:42:15;;;;;;;;;;;;;;;;;;4994801;28;19917;-66
2022/07/16 14:44:41;;;;;;;;;;;;;;;;;;5009775;28;19941;-65
2022/07/16 14:47:07;;;;;;;;;;;;;;;;;;5011144;28;19917;-64
2022/07/16 14:49:33;;;;;;;;;;;;;;;;;;5010805;28;19925;-66
2022/07/16 14:51:59;;;;;;;;;;;;;;;;;;5010885;28;20369;-67
2022/07/16 14:54:25;;;;;;;;;;;;;;;;;;5011030;28;20410;-66
2022/07/16 14:56:51;;;;;;;;;;;;;;;;;;5011930;28;19917;-66
2022/07/16 14:59:17;;;;;;;;;;;;;;;;;;5010473;28;19964;-66
2022/07/16 15:01:43;;;;;;;;;;;;;;;;;;5010533;28;19917;-65
2022/07/16 15:04:09;;;;;;;;;;;;;;;;;;4993367;28;19921;-66
2022/07/16 15:06:35;;;;;;;;;;;;;;;;;;5010995;28;20004;-68
2022/07/16 15:09:01;;;;;;;;;;;;;;;;;;5010449;28;19921;-66
2022/07/16 15:11:27;;;;;;;;;;;;;;;;;;5006619;28;19917;-68
2022/07/16 15:13:53;;;;;;;;;;;;;;;;;;5008533;28;20315;-65
2022/07/16 15:16:19;;;;;;;;;;;;;;;;;;5008295;28;19921;-66
2022/07/16 15:18:45;;;;;;;;;;;;;;;;;;5010191;28;19936;-65
2022/07/16 15:21:11;;;;;;;;;;;;;;;;;;4990695;28;19927;-67
2022/07/16 15:23:37;;;;;;;;;;;;;;;;;;5011441;28;19924;-65
2022/07/16 15:26:03;;;;;;;;;;;;;;;;;;5010046;28;19918;-68
2022/07/16 15:28:29;;;;;;;;;;;;;;;;;;5011621;28;19921;-66
2022/07/16 15:30:55;;;;;;;;;;;;;;;;;;5010242;28;19917;-67
2022/07/16 15:33:37;;;;;;;;;;;;;;;;;;5010921;28;19999;-66
2022/07/16 15:36:03;;;;;;;;;;;;;;;;;;5010891;28;20017;-69
2022/07/16 15:38:28;;;;;;;;;;;;;;;;;;5013779;28;19983;-65
2022/07/16 15:40:54;;;;;;;;;;;;;;;;;;5015091;28;19922;-67
2022/07/16 15:43:20;;;;;;;;;;;;;;;;;;5014404;28;19979;-68
2022/07/16 15:45:46;;;;;;;;;;;;;;;;;;4996102;28;19921;-68
2022/07/16 15:48:12;;;;;;;;;;;;;;;;;;5014701;28;20388;-67
2022/07/16 15:50:38;;;;;;;;;;;;;;;;;;5012561;28;19930;-66
2022/07/16 15:53:04;;;;;;;;;;;;;;;;;;5011628;28;19972;-65
2022/07/16 15:55:30;;;;;;;;;;;;;;;;;;4997732;28;19932;-66
2022/07/16 15:57:56;;;;;;;;;;;;;;;;;;4986330;28;19922;-67
2022/07/16 16:00:22;;;;;;;;;;;;;;;;;;5013621;28;20012;-67
2022/07/16 16:02:48;;;;;;;;;;;;;;;;;;5013452;28;19922;-69
2022/07/16 16:05:14;;;;;;;;;;;;;;;;;;5015214;28;19979;-67
2022/07/16 16:07:40;;;;;;;;;;;;;;;;;;5012682;28;19925;-67
2022/07/16 16:10:06;;;;;;;;;;;;;;;;;;5012182;28;20385;-66
2022/07/16 16:12:33;;;;;;;;;;;;;;;;;;5011986;28;19922;-66
2022/07/16 16:14:59;;;;;;;;;;;;;;;;;;5012407;28;20016;-66
2022/07/16 16:17:25;;;;;;;;;;;;;;;;;;5013995;28;20067;-68
2022/07/16 16:19:51;;;;;;;;;;;;;;;;;;5013137;28;19921;-66
2022/07/16 16:22:17;;;;;;;;;;;;;;;;;;5013804;28;19923;-66
2022/07/16 16:24:42;;;;;;;;;;;;;;;;;;4994531;28;19928;-66
2022/07/16 16:27:08;;;;;;;;;;;;;;;;;;5014394;28;20016;-66
2022/07/16 16:29:34;;;;;;;;;;;;;;;;;;4994350;28;19932;-66
2022/07/16 16:32:00;;;;;;;;;;;;;;;;;;4995904;28;19925;-66